createdAt,value
2022-07-30T00:33:43.766Z,16.23
2022-07-30T00:38:43.871Z,16.05
2022-07-30T00:43:43.984Z,16.05
2022-07-30T00:48:44.108Z,16.05
2022-07-30T00:53:44.193Z,15.86
2022-07-30T00:58:44.440Z,15.86
2022-07-30T01:03:44.550Z,16.05
2022-07-30T01:08:45.658Z,16.05
2022-07-30T01:13:46.740Z,16.05
2022-07-30T01:18:45.870Z,15.86
2022-07-30T01:23:47.676Z,16.05
2022-07-30T01:28:46.780Z,16.23
2022-07-30T01:33:47.895Z,15.25
2022-07-30T01:38:49.042Z,15.25
2022-07-30T01:43:51.167Z,16.23
2022-07-30T01:48:50.346Z,16.23
2022-07-30T01:53:51.484Z,16.05
2022-07-30T01:58:53.594Z,16.05
2022-07-30T02:03:53.834Z,16.05
2022-07-30T02:08:54.937Z,16.05
2022-07-30T02:13:56.045Z,16.23
2022-07-30T02:18:56.178Z,16.42
2022-07-30T02:23:55.516Z,16.42
2022-07-30T02:28:56.658Z,16.42
2022-07-30T02:33:59.791Z,16.23
2022-07-30T02:38:58.928Z,16.42
2022-07-30T02:44:00.089Z,15.44
2022-07-30T02:49:02.251Z,15.25
2022-07-30T02:54:01.438Z,15.44
2022-07-30T02:59:02.529Z,15.44
2022-07-30T03:04:04.634Z,15.25
2022-07-30T03:09:03.742Z,15.44
2022-07-30T03:14:05.843Z,15.62
2022-07-30T03:19:05.947Z,15.80
2022-07-30T03:24:05.058Z,15.80
2022-07-30T03:29:07.170Z,15.62
2022-07-30T03:34:06.476Z,15.62
2022-07-30T03:39:06.589Z,15.44
2022-07-30T03:44:10.735Z,15.25
2022-07-30T03:49:09.917Z,15.44
2022-07-30T03:54:13.015Z,15.62
2022-07-30T03:59:08.697Z,15.35
2022-07-30T04:04:09.982Z,15.52
2022-07-30T04:09:12.115Z,15.86
2022-07-30T04:14:11.251Z,15.86
2022-07-30T04:19:13.346Z,15.86
2022-07-30T04:24:12.467Z,15.69
2022-07-30T04:29:18.087Z,15.69
2022-07-30T04:34:13.509Z,15.69
2022-07-30T04:39:16.615Z,15.69
2022-07-30T04:44:15.739Z,15.69
2022-07-30T04:49:16.951Z,15.86
2022-07-30T04:54:19.079Z,15.86
2022-07-30T04:59:18.180Z,15.69
2022-07-30T05:04:19.299Z,15.69
2022-07-30T05:09:21.410Z,15.35
2022-07-30T05:14:21.556Z,15.35
2022-07-30T05:19:21.685Z,15.35
2022-07-30T05:24:20.794Z,15.35
2022-07-30T05:29:22.898Z,16.16
2022-07-30T05:34:22.476Z,16.16
2022-07-30T05:39:22.653Z,15.80
2022-07-30T05:44:24.270Z,15.80
2022-07-30T05:49:21.511Z,15.80
2022-07-30T05:54:24.729Z,16.16
2022-07-30T05:59:24.022Z,15.98
2022-07-30T06:04:26.215Z,15.98
2022-07-30T06:09:36.324Z,15.80
2022-07-30T06:14:26.399Z,15.80
2022-07-30T06:19:27.503Z,16.60
2022-07-30T06:24:29.178Z,16.42
2022-07-30T06:29:29.305Z,17.21
2022-07-30T06:34:28.396Z,16.05
2022-07-30T06:39:53.691Z,16.42
2022-07-30T06:44:29.451Z,17.21
2022-07-30T06:49:30.557Z,16.05
2022-07-30T06:54:30.668Z,17.02
2022-07-30T06:59:32.796Z,16.64
2022-07-30T07:04:32.831Z,17.02
2022-07-30T07:09:34.970Z,17.78
2022-07-30T07:14:36.924Z,17.36
2022-07-30T07:20:01.195Z,17.57
2022-07-30T07:24:36.980Z,16.61
2022-07-30T07:29:36.158Z,16.40
2022-07-30T07:34:37.267Z,16.81
2022-07-30T07:39:42.216Z,17.78
2022-07-30T07:44:39.543Z,17.57
2022-07-30T07:49:40.774Z,17.57
2022-07-30T07:54:41.894Z,17.36
2022-07-30T07:59:41.679Z,16.81
2022-07-30T08:04:42.825Z,17.36
2022-07-30T08:09:45.125Z,17.68
2022-07-30T08:14:45.268Z,17.46
2022-07-30T08:19:44.422Z,17.23
2022-07-30T08:24:49.618Z,17.96
2022-07-30T08:29:46.784Z,17.46
2022-07-30T08:34:48.953Z,17.96
2022-07-30T08:39:48.099Z,18.19
2022-07-30T08:44:49.258Z,17.49
2022-07-30T08:49:51.381Z,17.49
2022-07-30T08:54:51.595Z,17.49
2022-07-30T09:00:00.735Z,17.73
2022-07-30T09:04:50.830Z,18.19
2022-07-30T09:09:52.382Z,17.96
2022-07-30T09:14:53.533Z,17.73
2022-07-30T09:19:55.740Z,18.91
2022-07-30T09:24:54.963Z,18.44
2022-07-30T09:29:56.114Z,17.25
2022-07-30T09:34:58.234Z,18.66
2022-07-30T09:39:59.613Z,18.15
2022-07-30T09:44:57.860Z,17.63
2022-07-30T09:49:59.301Z,17.01
2022-07-30T09:54:58.870Z,16.54
2022-07-30T09:59:58.097Z,17.00
2022-07-30T10:05:00.166Z,17.68
2022-07-30T10:09:59.318Z,17.68
2022-07-30T10:15:01.400Z,17.46
2022-07-30T10:20:03.055Z,17.96
2022-07-30T10:25:03.004Z,18.20
2022-07-30T10:30:03.467Z,17.71
2022-07-30T10:35:04.464Z,17.21
2022-07-30T10:40:04.838Z,17.46
2022-07-30T10:45:04.259Z,18.20
2022-07-30T10:50:06.386Z,19.15
2022-07-30T10:55:06.840Z,17.71
2022-07-30T11:00:06.996Z,16.95
2022-07-30T11:05:06.394Z,17.46
2022-07-30T11:10:09.699Z,15.49
2022-07-30T11:15:18.285Z,16.01
2022-07-30T11:20:07.218Z,15.61
2022-07-30T11:25:12.739Z,16.16
2022-07-30T11:30:07.162Z,16.26
2022-07-30T11:35:08.325Z,16.26
2022-07-30T11:40:09.562Z,15.97
2022-07-30T11:45:10.793Z,15.97
2022-07-30T11:50:12.940Z,16.54
2022-07-30T11:55:12.064Z,17.37
2022-07-30T12:00:13.184Z,17.89
2022-07-30T12:05:15.336Z,17.63
2022-07-30T12:10:26.818Z,18.30
2022-07-30T12:15:15.492Z,18.96
2022-07-30T12:20:17.657Z,18.03
2022-07-30T12:25:16.805Z,18.66
2022-07-30T12:30:19.937Z,18.66
2022-07-30T12:35:19.076Z,19.15
2022-07-30T12:40:20.195Z,18.41
2022-07-30T12:45:21.341Z,19.51
2022-07-30T12:50:22.495Z,18.96
2022-07-30T12:55:23.679Z,18.96
2022-07-30T13:00:24.939Z,18.96
2022-07-30T13:05:26.089Z,18.69
2022-07-30T13:10:31.169Z,18.03
2022-07-30T13:15:27.758Z,16.54
2022-07-30T13:20:26.936Z,17.47
2022-07-30T13:25:38.870Z,16.54
2022-07-30T13:30:29.093Z,16.54
2022-07-30T13:35:36.166Z,16.26
2022-07-30T13:40:32.319Z,17.19
2022-07-30T13:45:31.431Z,16.54
2022-07-30T13:50:32.609Z,17.19
2022-07-30T13:55:32.332Z,16.90
2022-07-30T14:00:33.451Z,16.26
2022-07-30T14:05:35.565Z,16.82
2022-07-30T14:10:35.501Z,16.54
2022-07-30T14:15:36.616Z,15.97
2022-07-30T14:20:37.073Z,15.97
2022-07-30T14:25:36.260Z,15.38
2022-07-30T14:30:38.405Z,15.38
2022-07-30T14:35:37.524Z,14.77
2022-07-30T14:40:38.684Z,14.77
2022-07-30T14:45:40.792Z,14.46
2022-07-30T14:51:03.366Z,15.37
2022-07-30T14:55:40.905Z,15.69
2022-07-30T15:00:48.473Z,15.37
2022-07-30T15:05:41.990Z,15.69
2022-07-30T15:10:43.124Z,15.69
2022-07-30T15:15:45.216Z,16.92
2022-07-30T15:20:44.223Z,16.29
2022-07-30T15:25:45.360Z,16.29
2022-07-30T15:30:44.489Z,15.96
2022-07-30T15:35:45.643Z,15.96
2022-07-30T15:40:46.829Z,14.96
2022-07-30T15:45:55.317Z,14.96
2022-07-30T15:50:47.966Z,15.30
2022-07-30T15:55:51.076Z,15.86
2022-07-30T16:00:50.298Z,15.64
2022-07-30T16:05:52.966Z,15.30
2022-07-30T16:10:52.198Z,15.64
2022-07-30T16:15:54.501Z,15.86
2022-07-30T16:20:53.630Z,16.21
2022-07-30T16:25:54.797Z,16.55
2022-07-30T16:30:55.978Z,15.64
2022-07-30T16:35:58.096Z,15.05
2022-07-30T16:40:57.891Z,14.77
2022-07-30T16:45:57.028Z,14.77
2022-07-30T16:50:58.192Z,15.08
2022-07-30T16:56:00.337Z,15.68
2022-07-30T17:00:59.501Z,15.97
2022-07-30T17:06:00.641Z,15.97
2022-07-30T17:11:03.763Z,15.38
2022-07-30T17:16:01.772Z,15.69
2022-07-30T17:21:04.912Z,15.37
2022-07-30T17:26:04.002Z,15.38
2022-07-30T17:31:05.200Z,15.38
2022-07-30T17:36:06.323Z,14.46
2022-07-30T17:41:11.746Z,15.08
2022-07-30T17:46:07.424Z,15.69
2022-07-30T17:51:08.908Z,16.00
2022-07-30T17:56:08.027Z,15.38
2022-07-30T18:01:08.015Z,15.04
2022-07-30T18:06:09.190Z,15.04
2022-07-30T18:11:13.760Z,15.33
2022-07-30T18:16:11.105Z,15.61
2022-07-30T18:21:12.270Z,14.95
2022-07-30T18:26:18.431Z,14.95
2022-07-30T18:31:13.562Z,14.95
2022-07-30T18:36:14.722Z,15.22
2022-07-30T18:41:16.869Z,15.22
2022-07-30T18:46:16.077Z,15.22
2022-07-30T18:51:17.222Z,15.22
2022-07-30T18:56:20.334Z,15.22
2022-07-30T19:01:19.564Z,15.49
2022-07-30T19:06:21.604Z,14.95
2022-07-30T19:11:20.794Z,15.22
2022-07-30T19:16:21.941Z,14.55
2022-07-30T19:21:23.062Z,15.49
2022-07-30T19:26:25.206Z,14.55
2022-07-30T19:31:24.356Z,14.55
2022-07-30T19:36:25.542Z,14.55
2022-07-30T19:41:27.690Z,14.81
2022-07-30T19:46:28.732Z,14.81
2022-07-30T19:52:10.513Z,14.81
2022-07-30T19:56:29.797Z,14.81
2022-07-30T20:01:40.088Z,14.81
2022-07-30T20:06:30.901Z,14.13
2022-07-30T20:11:36.394Z,14.38
2022-07-30T20:16:30.908Z,14.63
2022-07-30T20:21:56.371Z,14.63
2022-07-30T20:26:34.053Z,14.63
2022-07-30T20:31:32.835Z,14.63
2022-07-30T20:36:32.115Z,14.63
2022-07-30T20:41:33.223Z,14.63
2022-07-30T20:46:35.336Z,14.63
2022-07-30T20:51:35.472Z,14.87
2022-07-30T20:56:35.590Z,14.87
2022-07-30T21:01:34.804Z,14.87
2022-07-30T21:06:34.831Z,14.63
2022-07-30T21:11:37.985Z,14.87
2022-07-30T21:16:35.868Z,14.87
2022-07-30T21:21:41.547Z,14.87
2022-07-30T21:26:36.896Z,14.63
2022-07-30T21:32:02.055Z,14.63
2022-07-30T21:36:39.555Z,14.63
2022-07-30T21:41:40.322Z,13.93
2022-07-30T21:46:39.865Z,13.93
2022-07-30T21:51:41.981Z,14.17
2022-07-30T21:56:43.623Z,14.40
2022-07-30T22:01:47.755Z,14.40
2022-07-30T22:06:42.959Z,14.17
2022-07-30T22:11:46.098Z,14.17
2022-07-30T22:16:46.072Z,14.17
2022-07-30T22:21:46.345Z,14.17
2022-07-30T22:26:44.131Z,14.17
2022-07-30T22:31:45.139Z,14.17
2022-07-30T22:36:45.680Z,14.40
2022-07-30T22:41:45.045Z,14.40
2022-07-30T22:46:46.353Z,14.64
2022-07-30T22:52:01.849Z,14.87
2022-07-30T22:56:48.300Z,14.64
2022-07-30T23:01:47.393Z,14.64
2022-07-30T23:06:49.513Z,14.40
2022-07-30T23:11:49.929Z,14.64
2022-07-30T23:16:50.121Z,14.40
2022-07-30T23:21:50.620Z,14.40
2022-07-30T23:26:50.484Z,14.40
2022-07-30T23:31:51.628Z,14.40
2022-07-30T23:36:50.807Z,14.40
2022-07-30T23:41:52.922Z,14.64
2022-07-30T23:46:52.080Z,14.64
2022-07-30T23:51:53.203Z,14.64
2022-07-30T23:56:55.319Z,14.64
